Capitol Logistics 374




KBWI
Baltimore/Washington International Airport
Baltimore, Maryland
KMHT
Manchester Airport
Manchester, New Hampshire

Activity Log

Date Flight Route Aircraft Duration
04/06/2022 CPX374 SWANN3 SWANN BROSS Q419 RBV Q22 LLUND SMYTH ROZZE2 B752 1h 19m
04/16/2021 CPX374 SWANN3 OOD J42 RBV LGA CMK SMYTH ROZZE2 B738 1h 20m
04/14/2021 CPX374 SWANN3 OOD J42 RBV LGA CMK SMYTH ROZZE2 B752 1h 37m

Route Details

Aircraft Information
Group: Narrowbodies
Types: B738,B752
Route Data
Demand: V
Distance: 327nm
Duration: 1h 13m
Recm'd Route: SWANN3 OOD J42 RBV LGA CMK SMYTH ROZZE2
Origin Wx: KBWI 270654Z VRB03KT 7SM OVC005 20/19 A3000 RMK AO2 SLP158 T02000189
Dest. Wx: KMHT 270653Z 19008KT 10SM OVC034 18/12 A3000 RMK AO2 SLP168 T01830122
Notes:

Financial History
Total Freight: 112,847lbs
Average Load: 37,616lbs/flt
Fuel Used: 21,483lbs
Avg. Fuel Used: 7,161lbs/flt
Fuel Expense: $12,629
Avg. Fuel Expense: $4,210
Avg. Fuel Cost: $0.66/lbs
Total Gross Income: $242,157
Pilot Pay: $577
Total Expenses: $28,731
Total Revenue: $199,931
Average Revenue: $80,718.90